sensor_id;sensor_type;location;lat;lon;timestamp;temperature;humidity
58469;DHT22;44257;44.804;10.220;2023-04-24T00:00:14;16.60;99.90
58469;DHT22;44257;44.804;10.220;2023-04-24T00:02:41;16.70;99.90
58469;DHT22;44257;44.804;10.220;2023-04-24T00:05:10;16.70;99.90
58469;DHT22;44257;44.804;10.220;2023-04-24T00:07:36;16.70;99.90
58469;DHT22;44257;44.804;10.220;2023-04-24T00:10:02;16.70;99.90
58469;DHT22;44257;44.804;10.220;2023-04-24T00:12:27;16.70;99.90
58469;DHT22;44257;44.804;10.220;2023-04-24T00:14:55;16.70;99.90
58469;DHT22;44257;44.804;10.220;2023-04-24T00:17:21;16.80;99.90
58469;DHT22;44257;44.804;10.220;2023-04-24T00:19:47;16.90;99.90
58469;DHT22;44257;44.804;10.220;2023-04-24T00:22:13;17.00;99.90
58469;DHT22;44257;44.804;10.220;2023-04-24T00:24:40;16.90;99.90
58469;DHT22;44257;44.804;10.220;2023-04-24T00:27:06;16.90;99.90
58469;DHT22;44257;44.804;10.220;2023-04-24T00:29:32;16.90;99.90
58469;DHT22;44257;44.804;10.220;2023-04-24T00:31:58;16.80;99.90
58469;DHT22;44257;44.804;10.220;2023-04-24T00:34:23;16.70;99.90
58469;DHT22;44257;44.804;10.220;2023-04-24T00:36:50;16.70;99.90
58469;DHT22;44257;44.804;10.220;2023-04-24T00:39:21;16.60;99.90
58469;DHT22;44257;44.804;10.220;2023-04-24T00:41:47;16.40;99.90
58469;DHT22;44257;44.804;10.220;2023-04-24T00:44:14;16.30;99.90
58469;DHT22;44257;44.804;10.220;2023-04-24T00:46:40;16.10;99.90
58469;DHT22;44257;44.804;10.220;2023-04-24T00:49:06;15.90;99.90
58469;DHT22;44257;44.804;10.220;2023-04-24T00:51:32;15.80;99.90
58469;DHT22;44257;44.804;10.220;2023-04-24T00:53:59;15.70;99.90
58469;DHT22;44257;44.804;10.220;2023-04-24T00:56:25;15.60;99.90
58469;DHT22;44257;44.804;10.220;2023-04-24T00:58:52;15.50;99.90
58469;DHT22;44257;44.804;10.220;2023-04-24T01:01:21;15.50;99.90
58469;DHT22;44257;44.804;10.220;2023-04-24T01:03:49;15.40;99.90
58469;DHT22;44257;44.804;10.220;2023-04-24T01:06:15;15.40;99.90
58469;DHT22;44257;44.804;10.220;2023-04-24T01:08:42;15.40;99.90
58469;DHT22;44257;44.804;10.220;2023-04-24T01:11:09;15.30;99.90
58469;DHT22;44257;44.804;10.220;2023-04-24T01:13:35;15.30;99.90
58469;DHT22;44257;44.804;10.220;2023-04-24T01:16:02;15.30;99.90
58469;DHT22;44257;44.804;10.220;2023-04-24T01:18:28;15.20;99.90
58469;DHT22;44257;44.804;10.220;2023-04-24T01:20:58;15.20;99.90
58469;DHT22;44257;44.804;10.220;2023-04-24T01:23:25;15.20;99.90
58469;DHT22;44257;44.804;10.220;2023-04-24T01:25:51;15.20;99.90
58469;DHT22;44257;44.804;10.220;2023-04-24T01:28:18;15.20;99.90
58469;DHT22;44257;44.804;10.220;2023-04-24T01:30:44;15.20;99.90
58469;DHT22;44257;44.804;10.220;2023-04-24T01:33:10;15.30;99.90
58469;DHT22;44257;44.804;10.220;2023-04-24T01:35:37;15.30;99.90
58469;DHT22;44257;44.804;10.220;2023-04-24T01:38:03;15.40;99.90
58469;DHT22;44257;44.804;10.220;2023-04-24T01:40:29;15.50;99.90
58469;DHT22;44257;44.804;10.220;2023-04-24T01:42:58;15.70;99.90
58469;DHT22;44257;44.804;10.220;2023-04-24T01:45:24;15.80;99.90
58469;DHT22;44257;44.804;10.220;2023-04-24T01:47:50;15.80;99.90
58469;DHT22;44257;44.804;10.220;2023-04-24T01:50:17;15.80;99.90
58469;DHT22;44257;44.804;10.220;2023-04-24T01:52:43;15.80;99.90
58469;DHT22;44257;44.804;10.220;2023-04-24T01:55:10;15.80;99.90
58469;DHT22;44257;44.804;10.220;2023-04-24T01:57:37;15.70;99.90
58469;DHT22;44257;44.804;10.220;2023-04-24T02:00:04;15.70;99.90
58469;DHT22;44257;44.804;10.220;2023-04-24T02:02:42;15.60;99.90
58469;DHT22;44257;44.804;10.220;2023-04-24T02:05:08;15.40;99.90
58469;DHT22;44257;44.804;10.220;2023-04-24T02:07:36;15.20;99.90
58469;DHT22;44257;44.804;10.220;2023-04-24T02:10:02;15.10;99.90
58469;DHT22;44257;44.804;10.220;2023-04-24T02:12:29;14.90;99.90
58469;DHT22;44257;44.804;10.220;2023-04-24T02:14:55;14.80;99.90
58469;DHT22;44257;44.804;10.220;2023-04-24T02:17:21;14.70;99.90
58469;DHT22;44257;44.804;10.220;2023-04-24T02:19:48;14.60;99.90
58469;DHT22;44257;44.804;10.220;2023-04-24T02:22:16;14.60;99.90
58469;DHT22;44257;44.804;10.220;2023-04-24T02:24:42;14.60;99.90
58469;DHT22;44257;44.804;10.220;2023-04-24T02:30:55;14.70;99.90
58469;DHT22;44257;44.804;10.220;2023-04-24T02:33:21;14.60;99.90
58469;DHT22;44257;44.804;10.220;2023-04-24T02:35:47;14.60;99.90
58469;DHT22;44257;44.804;10.220;2023-04-24T02:38:13;14.60;99.90
58469;DHT22;44257;44.804;10.220;2023-04-24T02:40:39;14.60;99.90
58469;DHT22;44257;44.804;10.220;2023-04-24T02:43:05;14.50;99.90
58469;DHT22;44257;44.804;10.220;2023-04-24T02:45:30;14.40;99.90
58469;DHT22;44257;44.804;10.220;2023-04-24T02:47:56;14.50;99.90
58469;DHT22;44257;44.804;10.220;2023-04-24T02:50:22;14.50;99.90
58469;DHT22;44257;44.804;10.220;2023-04-24T02:52:48;14.50;99.90
58469;DHT22;44257;44.804;10.220;2023-04-24T02:55:13;14.50;99.90
58469;DHT22;44257;44.804;10.220;2023-04-24T02:57:39;14.40;99.90
58469;DHT22;44257;44.804;10.220;2023-04-24T03:00:06;14.40;99.90
58469;DHT22;44257;44.804;10.220;2023-04-24T03:02:32;14.40;99.90
58469;DHT22;44257;44.804;10.220;2023-04-24T03:04:59;14.40;99.90
58469;DHT22;44257;44.804;10.220;2023-04-24T03:07:25;14.40;99.90
58469;DHT22;44257;44.804;10.220;2023-04-24T03:09:51;14.40;99.90
58469;DHT22;44257;44.804;10.220;2023-04-24T03:12:16;14.40;99.90
58469;DHT22;44257;44.804;10.220;2023-04-24T03:14:43;14.40;99.90
58469;DHT22;44257;44.804;10.220;2023-04-24T03:17:09;14.40;99.90
58469;DHT22;44257;44.804;10.220;2023-04-24T03:19:37;14.40;99.90
58469;DHT22;44257;44.804;10.220;2023-04-24T03:22:08;14.40;99.90
58469;DHT22;44257;44.804;10.220;2023-04-24T03:24:35;14.40;99.90
58469;DHT22;44257;44.804;10.220;2023-04-24T03:27:01;14.40;99.90
58469;DHT22;44257;44.804;10.220;2023-04-24T03:29:50;14.40;99.90
58469;DHT22;44257;44.804;10.220;2023-04-24T03:32:24;14.40;99.90
58469;DHT22;44257;44.804;10.220;2023-04-24T03:34:51;14.40;99.90
58469;DHT22;44257;44.804;10.220;2023-04-24T03:37:18;14.50;99.90
58469;DHT22;44257;44.804;10.220;2023-04-24T03:39:53;14.50;99.90
58469;DHT22;44257;44.804;10.220;2023-04-24T03:42:23;14.40;99.90
58469;DHT22;44257;44.804;10.220;2023-04-24T03:44:51;14.40;99.90
58469;DHT22;44257;44.804;10.220;2023-04-24T03:47:21;14.40;99.90
58469;DHT22;44257;44.804;10.220;2023-04-24T03:49:48;14.40;99.90
58469;DHT22;44257;44.804;10.220;2023-04-24T03:52:14;14.30;99.90
58469;DHT22;44257;44.804;10.220;2023-04-24T03:54:40;14.30;99.90
58469;DHT22;44257;44.804;10.220;2023-04-24T03:57:06;14.30;99.90
58469;DHT22;44257;44.804;10.220;2023-04-24T03:59:34;14.30;99.90
58469;DHT22;44257;44.804;10.220;2023-04-24T04:02:18;14.30;99.90
58469;DHT22;44257;44.804;10.220;2023-04-24T04:04:44;14.20;99.90
58469;DHT22;44257;44.804;10.220;2023-04-24T04:07:10;14.10;99.90
58469;DHT22;44257;44.804;10.220;2023-04-24T04:09:37;14.00;99.90
58469;DHT22;44257;44.804;10.220;2023-04-24T04:12:02;13.90;99.90
58469;DHT22;44257;44.804;10.220;2023-04-24T04:14:28;13.90;99.90
58469;DHT22;44257;44.804;10.220;2023-04-24T04:16:55;13.90;99.90
58469;DHT22;44257;44.804;10.220;2023-04-24T04:19:21;13.90;99.90
58469;DHT22;44257;44.804;10.220;2023-04-24T04:21:46;13.90;99.90
58469;DHT22;44257;44.804;10.220;2023-04-24T04:24:40;13.80;99.90
58469;DHT22;44257;44.804;10.220;2023-04-24T04:27:07;13.80;99.90
58469;DHT22;44257;44.804;10.220;2023-04-24T04:29:42;13.70;99.90
58469;DHT22;44257;44.804;10.220;2023-04-24T04:32:10;13.80;99.90
58469;DHT22;44257;44.804;10.220;2023-04-24T04:34:36;13.80;99.90
58469;DHT22;44257;44.804;10.220;2023-04-24T04:37:04;13.80;99.90
58469;DHT22;44257;44.804;10.220;2023-04-24T04:39:50;13.70;99.90
58469;DHT22;44257;44.804;10.220;2023-04-24T04:42:22;13.70;99.90
58469;DHT22;44257;44.804;10.220;2023-04-24T04:44:50;13.70;99.90
58469;DHT22;44257;44.804;10.220;2023-04-24T04:47:21;13.60;99.90
58469;DHT22;44257;44.804;10.220;2023-04-24T04:49:51;13.60;99.90
58469;DHT22;44257;44.804;10.220;2023-04-24T04:52:23;13.60;99.90
58469;DHT22;44257;44.804;10.220;2023-04-24T04:54:59;13.60;99.90
58469;DHT22;44257;44.804;10.220;2023-04-24T04:57:39;13.60;99.90
58469;DHT22;44257;44.804;10.220;2023-04-24T05:00:05;13.60;99.90
58469;DHT22;44257;44.804;10.220;2023-04-24T05:02:41;13.60;99.90
58469;DHT22;44257;44.804;10.220;2023-04-24T05:05:07;13.50;99.90
58469;DHT22;44257;44.804;10.220;2023-04-24T05:07:34;13.50;99.90
58469;DHT22;44257;44.804;10.220;2023-04-24T05:10:00;13.50;99.90
58469;DHT22;44257;44.804;10.220;2023-04-24T05:12:26;13.40;99.90
58469;DHT22;44257;44.804;10.220;2023-04-24T05:14:53;13.40;99.90
58469;DHT22;44257;44.804;10.220;2023-04-24T05:17:19;13.30;99.90
58469;DHT22;44257;44.804;10.220;2023-04-24T05:19:44;13.30;99.90
58469;DHT22;44257;44.804;10.220;2023-04-24T05:22:10;13.30;99.90
58469;DHT22;44257;44.804;10.220;2023-04-24T05:24:46;13.30;99.90
58469;DHT22;44257;44.804;10.220;2023-04-24T05:27:33;13.30;99.90
58469;DHT22;44257;44.804;10.220;2023-04-24T05:30:01;13.30;99.90
58469;DHT22;44257;44.804;10.220;2023-04-24T05:32:26;13.30;99.90
58469;DHT22;44257;44.804;10.220;2023-04-24T05:34:54;13.30;99.90
58469;DHT22;44257;44.804;10.220;2023-04-24T05:37:20;13.40;99.90
58469;DHT22;44257;44.804;10.220;2023-04-24T05:39:46;13.40;99.90
58469;DHT22;44257;44.804;10.220;2023-04-24T05:42:12;13.40;99.90
58469;DHT22;44257;44.804;10.220;2023-04-24T05:44:38;13.40;99.90
58469;DHT22;44257;44.804;10.220;2023-04-24T05:47:04;13.50;99.90
58469;DHT22;44257;44.804;10.220;2023-04-24T05:49:30;13.60;99.90
58469;DHT22;44257;44.804;10.220;2023-04-24T05:51:57;13.70;99.90
58469;DHT22;44257;44.804;10.220;2023-04-24T05:54:23;13.90;99.90
58469;DHT22;44257;44.804;10.220;2023-04-24T05:56:49;14.10;99.90
58469;DHT22;44257;44.804;10.220;2023-04-24T05:59:24;14.20;99.90
58469;DHT22;44257;44.804;10.220;2023-04-24T06:01:50;14.40;99.90
58469;DHT22;44257;44.804;10.220;2023-04-24T06:04:19;14.70;99.90
58469;DHT22;44257;44.804;10.220;2023-04-24T06:06:45;15.20;99.90
58469;DHT22;44257;44.804;10.220;2023-04-24T06:09:11;15.70;99.90
58469;DHT22;44257;44.804;10.220;2023-04-24T06:11:38;16.00;99.90
58469;DHT22;44257;44.804;10.220;2023-04-24T06:14:06;16.40;99.90
58469;DHT22;44257;44.804;10.220;2023-04-24T06:16:57;16.70;99.90
58469;DHT22;44257;44.804;10.220;2023-04-24T06:19:36;16.90;99.90
58469;DHT22;44257;44.804;10.220;2023-04-24T06:22:03;16.90;99.90
58469;DHT22;44257;44.804;10.220;2023-04-24T06:24:29;16.80;99.90
58469;DHT22;44257;44.804;10.220;2023-04-24T06:26:54;16.80;99.90
58469;DHT22;44257;44.804;10.220;2023-04-24T06:29:20;17.00;99.90
58469;DHT22;44257;44.804;10.220;2023-04-24T06:31:46;17.30;99.90
58469;DHT22;44257;44.804;10.220;2023-04-24T06:34:12;17.50;99.90
58469;DHT22;44257;44.804;10.220;2023-04-24T06:36:37;17.60;99.90
58469;DHT22;44257;44.804;10.220;2023-04-24T06:39:03;17.80;99.90
58469;DHT22;44257;44.804;10.220;2023-04-24T06:41:29;18.00;99.90
58469;DHT22;44257;44.804;10.220;2023-04-24T06:43:55;18.10;99.90
58469;DHT22;44257;44.804;10.220;2023-04-24T06:46:21;18.30;99.90
58469;DHT22;44257;44.804;10.220;2023-04-24T06:48:49;18.30;99.90
58469;DHT22;44257;44.804;10.220;2023-04-24T06:51:16;18.30;99.90
58469;DHT22;44257;44.804;10.220;2023-04-24T06:53:43;18.20;99.90
58469;DHT22;44257;44.804;10.220;2023-04-24T06:56:09;18.00;99.90
58469;DHT22;44257;44.804;10.220;2023-04-24T06:58:35;18.00;99.90
58469;DHT22;44257;44.804;10.220;2023-04-24T07:01:01;18.20;99.90
58469;DHT22;44257;44.804;10.220;2023-04-24T07:03:27;18.40;99.90
58469;DHT22;44257;44.804;10.220;2023-04-24T07:05:53;18.80;99.90
58469;DHT22;44257;44.804;10.220;2023-04-24T07:08:20;18.90;99.90
58469;DHT22;44257;44.804;10.220;2023-04-24T07:10:48;18.80;99.90
58469;DHT22;44257;44.804;10.220;2023-04-24T07:13:13;18.50;99.90
58469;DHT22;44257;44.804;10.220;2023-04-24T07:15:39;18.40;99.90
58469;DHT22;44257;44.804;10.220;2023-04-24T07:18:07;18.10;99.90
58469;DHT22;44257;44.804;10.220;2023-04-24T07:20:33;18.00;99.90
58469;DHT22;44257;44.804;10.220;2023-04-24T07:22:59;18.00;99.90
58469;DHT22;44257;44.804;10.220;2023-04-24T07:25:25;18.00;99.90
58469;DHT22;44257;44.804;10.220;2023-04-24T07:27:51;18.20;99.90
58469;DHT22;44257;44.804;10.220;2023-04-24T07:30:16;18.10;99.90
58469;DHT22;44257;44.804;10.220;2023-04-24T07:32:42;17.90;99.90
58469;DHT22;44257;44.804;10.220;2023-04-24T07:35:08;17.80;99.90
58469;DHT22;44257;44.804;10.220;2023-04-24T07:37:35;17.80;99.90
58469;DHT22;44257;44.804;10.220;2023-04-24T07:40:01;18.00;99.90
58469;DHT22;44257;44.804;10.220;2023-04-24T07:42:28;18.10;99.90
58469;DHT22;44257;44.804;10.220;2023-04-24T07:44:55;18.10;99.90
58469;DHT22;44257;44.804;10.220;2023-04-24T07:47:21;18.10;99.90
58469;DHT22;44257;44.804;10.220;2023-04-24T07:49:47;18.10;99.90
58469;DHT22;44257;44.804;10.220;2023-04-24T07:52:13;18.00;99.90
58469;DHT22;44257;44.804;10.220;2023-04-24T07:54:39;18.20;99.90
58469;DHT22;44257;44.804;10.220;2023-04-24T07:57:05;18.50;99.90
58469;DHT22;44257;44.804;10.220;2023-04-24T07:59:32;18.70;99.90
58469;DHT22;44257;44.804;10.220;2023-04-24T08:01:58;18.90;99.90
58469;DHT22;44257;44.804;10.220;2023-04-24T08:04:23;19.20;99.90
58469;DHT22;44257;44.804;10.220;2023-04-24T08:06:51;19.50;99.90
58469;DHT22;44257;44.804;10.220;2023-04-24T08:09:16;19.50;99.90
58469;DHT22;44257;44.804;10.220;2023-04-24T08:11:43;19.50;99.90
58469;DHT22;44257;44.804;10.220;2023-04-24T08:14:09;19.40;99.90
58469;DHT22;44257;44.804;10.220;2023-04-24T08:16:35;19.20;99.90
58469;DHT22;44257;44.804;10.220;2023-04-24T08:19:01;19.00;99.90
58469;DHT22;44257;44.804;10.220;2023-04-24T08:21:27;18.70;99.90
58469;DHT22;44257;44.804;10.220;2023-04-24T08:23:52;18.60;99.90
58469;DHT22;44257;44.804;10.220;2023-04-24T08:26:18;18.60;99.90
58469;DHT22;44257;44.804;10.220;2023-04-24T08:28:44;18.70;99.90
58469;DHT22;44257;44.804;10.220;2023-04-24T08:31:10;18.70;99.90
58469;DHT22;44257;44.804;10.220;2023-04-24T08:33:36;18.70;99.90
58469;DHT22;44257;44.804;10.220;2023-04-24T08:36:05;18.90;99.90
58469;DHT22;44257;44.804;10.220;2023-04-24T08:38:31;18.90;99.90
58469;DHT22;44257;44.804;10.220;2023-04-24T08:41:01;18.80;99.90
58469;DHT22;44257;44.804;10.220;2023-04-24T08:43:27;18.80;99.90
58469;DHT22;44257;44.804;10.220;2023-04-24T08:45:55;18.70;99.90
58469;DHT22;44257;44.804;10.220;2023-04-24T08:48:22;18.80;99.90
58469;DHT22;44257;44.804;10.220;2023-04-24T08:50:50;18.90;99.90
58469;DHT22;44257;44.804;10.220;2023-04-24T08:53:18;19.00;99.90
58469;DHT22;44257;44.804;10.220;2023-04-24T08:55:46;19.10;99.90
58469;DHT22;44257;44.804;10.220;2023-04-24T08:58:13;19.20;99.90
58469;DHT22;44257;44.804;10.220;2023-04-24T09:00:40;19.20;99.90
58469;DHT22;44257;44.804;10.220;2023-04-24T09:03:16;19.40;99.90
58469;DHT22;44257;44.804;10.220;2023-04-24T09:05:47;19.70;99.90
58469;DHT22;44257;44.804;10.220;2023-04-24T09:08:13;20.00;99.90
58469;DHT22;44257;44.804;10.220;2023-04-24T09:10:40;19.80;99.90
58469;DHT22;44257;44.804;10.220;2023-04-24T09:13:06;19.70;99.90
58469;DHT22;44257;44.804;10.220;2023-04-24T09:15:35;19.70;99.90
58469;DHT22;44257;44.804;10.220;2023-04-24T09:18:01;19.90;99.90
58469;DHT22;44257;44.804;10.220;2023-04-24T09:20:27;20.20;99.90
58469;DHT22;44257;44.804;10.220;2023-04-24T09:22:57;20.30;99.90
58469;DHT22;44257;44.804;10.220;2023-04-24T09:25:33;20.30;99.90
58469;DHT22;44257;44.804;10.220;2023-04-24T09:28:03;20.30;99.90
58469;DHT22;44257;44.804;10.220;2023-04-24T09:30:30;20.40;99.90
58469;DHT22;44257;44.804;10.220;2023-04-24T09:35:41;20.40;99.90
58469;DHT22;44257;44.804;10.220;2023-04-24T09:38:07;20.30;99.90
58469;DHT22;44257;44.804;10.220;2023-04-24T09:40:34;20.50;99.90
58469;DHT22;44257;44.804;10.220;2023-04-24T09:43:01;20.60;99.90
58469;DHT22;44257;44.804;10.220;2023-04-24T09:45:38;20.60;99.90
58469;DHT22;44257;44.804;10.220;2023-04-24T09:48:05;20.70;99.90
58469;DHT22;44257;44.804;10.220;2023-04-24T09:50:32;21.10;99.90
58469;DHT22;44257;44.804;10.220;2023-04-24T09:53:03;21.00;99.90
58469;DHT22;44257;44.804;10.220;2023-04-24T09:55:30;21.10;99.90
58469;DHT22;44257;44.804;10.220;2023-04-24T09:58:00;21.40;99.90
58469;DHT22;44257;44.804;10.220;2023-04-24T10:00:28;21.40;99.90
58469;DHT22;44257;44.804;10.220;2023-04-24T10:02:59;21.50;99.90
58469;DHT22;44257;44.804;10.220;2023-04-24T10:05:28;21.70;99.90
58469;DHT22;44257;44.804;10.220;2023-04-24T10:07:59;21.80;99.90
58469;DHT22;44257;44.804;10.220;2023-04-24T10:10:25;21.90;99.90
58469;DHT22;44257;44.804;10.220;2023-04-24T10:12:51;21.90;99.90
58469;DHT22;44257;44.804;10.220;2023-04-24T10:15:18;21.80;99.90
58469;DHT22;44257;44.804;10.220;2023-04-24T10:17:48;21.80;99.90
58469;DHT22;44257;44.804;10.220;2023-04-24T10:20:25;21.70;99.90
58469;DHT22;44257;44.804;10.220;2023-04-24T10:22:53;21.30;99.90
58469;DHT22;44257;44.804;10.220;2023-04-24T10:25:24;21.30;99.90
58469;DHT22;44257;44.804;10.220;2023-04-24T10:27:51;21.40;99.90
58469;DHT22;44257;44.804;10.220;2023-04-24T10:30:19;21.50;99.90
58469;DHT22;44257;44.804;10.220;2023-04-24T10:32:45;21.50;99.90
58469;DHT22;44257;44.804;10.220;2023-04-24T10:35:13;21.40;99.90
58469;DHT22;44257;44.804;10.220;2023-04-24T10:37:51;21.10;99.90
58469;DHT22;44257;44.804;10.220;2023-04-24T10:40:34;21.00;99.90
58469;DHT22;44257;44.804;10.220;2023-04-24T10:43:08;21.00;99.90
58469;DHT22;44257;44.804;10.220;2023-04-24T10:45:37;21.00;99.90
58469;DHT22;44257;44.804;10.220;2023-04-24T10:48:05;21.10;99.90
58469;DHT22;44257;44.804;10.220;2023-04-24T10:50:53;21.20;99.90
58469;DHT22;44257;44.804;10.220;2023-04-24T10:53:20;21.10;99.90
58469;DHT22;44257;44.804;10.220;2023-04-24T10:56:07;21.30;99.90
58469;DHT22;44257;44.804;10.220;2023-04-24T10:58:44;21.60;99.90
58469;DHT22;44257;44.804;10.220;2023-04-24T11:01:25;21.80;99.90
58469;DHT22;44257;44.804;10.220;2023-04-24T11:03:56;21.70;99.90
58469;DHT22;44257;44.804;10.220;2023-04-24T11:06:41;21.70;99.90
58469;DHT22;44257;44.804;10.220;2023-04-24T11:09:10;21.40;99.90
58469;DHT22;44257;44.804;10.220;2023-04-24T11:11:38;21.40;99.90
58469;DHT22;44257;44.804;10.220;2023-04-24T11:14:10;21.40;99.90
58469;DHT22;44257;44.804;10.220;2023-04-24T11:21:42;21.60;99.90
58469;DHT22;44257;44.804;10.220;2023-04-24T11:27:20;21.70;99.90
58469;DHT22;44257;44.804;10.220;2023-04-24T11:35:06;22.00;99.90
58469;DHT22;44257;44.804;10.220;2023-04-24T11:37:38;22.10;99.90
58469;DHT22;44257;44.804;10.220;2023-04-24T11:40:07;22.20;99.90
58469;DHT22;44257;44.804;10.220;2023-04-24T11:42:43;22.20;99.90
58469;DHT22;44257;44.804;10.220;2023-04-24T11:45:12;22.30;99.90
58469;DHT22;44257;44.804;10.220;2023-04-24T11:47:39;22.40;99.90
58469;DHT22;44257;44.804;10.220;2023-04-24T11:50:07;22.20;99.90
58469;DHT22;44257;44.804;10.220;2023-04-24T11:52:37;22.20;99.90
58469;DHT22;44257;44.804;10.220;2023-04-24T11:55:03;22.10;99.90
58469;DHT22;44257;44.804;10.220;2023-04-24T11:57:30;22.20;99.90
58469;DHT22;44257;44.804;10.220;2023-04-24T12:00:05;22.50;99.90
58469;DHT22;44257;44.804;10.220;2023-04-24T12:02:37;22.40;99.90
58469;DHT22;44257;44.804;10.220;2023-04-24T12:05:03;22.40;99.90
58469;DHT22;44257;44.804;10.220;2023-04-24T12:07:29;22.50;99.90
58469;DHT22;44257;44.804;10.220;2023-04-24T12:09:57;22.40;99.90
58469;DHT22;44257;44.804;10.220;2023-04-24T12:12:28;22.20;99.90
58469;DHT22;44257;44.804;10.220;2023-04-24T12:14:58;22.20;99.90
58469;DHT22;44257;44.804;10.220;2023-04-24T12:17:31;22.20;99.90
58469;DHT22;44257;44.804;10.220;2023-04-24T12:20:05;22.50;99.90
58469;DHT22;44257;44.804;10.220;2023-04-24T12:22:44;22.50;99.90
58469;DHT22;44257;44.804;10.220;2023-04-24T12:25:11;22.70;99.90
58469;DHT22;44257;44.804;10.220;2023-04-24T12:27:37;22.70;99.40
58469;DHT22;44257;44.804;10.220;2023-04-24T12:30:05;22.60;98.90
58469;DHT22;44257;44.804;10.220;2023-04-24T12:32:32;22.50;99.80
58469;DHT22;44257;44.804;10.220;2023-04-24T12:34:58;22.60;99.80
58469;DHT22;44257;44.804;10.220;2023-04-24T12:37:25;22.70;98.50
58469;DHT22;44257;44.804;10.220;2023-04-24T12:40:11;22.70;97.90
58469;DHT22;44257;44.804;10.220;2023-04-24T12:42:53;22.80;97.90
58469;DHT22;44257;44.804;10.220;2023-04-24T12:45:19;22.90;97.70
58469;DHT22;44257;44.804;10.220;2023-04-24T12:47:46;23.10;98.40
58469;DHT22;44257;44.804;10.220;2023-04-24T12:50:13;23.30;98.20
58469;DHT22;44257;44.804;10.220;2023-04-24T12:52:41;23.80;98.20
58469;DHT22;44257;44.804;10.220;2023-04-24T12:55:07;24.20;95.00
58469;DHT22;44257;44.804;10.220;2023-04-24T12:57:34;24.50;95.60
58469;DHT22;44257;44.804;10.220;2023-04-24T13:00:01;24.50;93.40
58469;DHT22;44257;44.804;10.220;2023-04-24T13:02:28;24.60;92.60
58469;DHT22;44257;44.804;10.220;2023-04-24T13:04:58;24.80;93.00
58469;DHT22;44257;44.804;10.220;2023-04-24T13:07:25;24.90;92.90
58469;DHT22;44257;44.804;10.220;2023-04-24T13:09:51;25.10;92.60
58469;DHT22;44257;44.804;10.220;2023-04-24T13:12:18;25.30;93.10
58469;DHT22;44257;44.804;10.220;2023-04-24T13:14:44;25.50;94.10
58469;DHT22;44257;44.804;10.220;2023-04-24T13:17:11;25.60;92.00
58469;DHT22;44257;44.804;10.220;2023-04-24T13:19:40;25.80;94.40
58469;DHT22;44257;44.804;10.220;2023-04-24T13:22:09;26.00;93.10
58469;DHT22;44257;44.804;10.220;2023-04-24T13:24:35;26.10;92.70
58469;DHT22;44257;44.804;10.220;2023-04-24T13:27:01;26.10;90.00
58469;DHT22;44257;44.804;10.220;2023-04-24T13:29:28;26.00;90.50
58469;DHT22;44257;44.804;10.220;2023-04-24T13:31:54;25.80;90.40
58469;DHT22;44257;44.804;10.220;2023-04-24T13:34:22;25.70;89.10
58469;DHT22;44257;44.804;10.220;2023-04-24T13:36:48;25.60;88.80
58469;DHT22;44257;44.804;10.220;2023-04-24T13:39:14;25.50;88.70
58469;DHT22;44257;44.804;10.220;2023-04-24T13:41:41;25.50;86.60
58469;DHT22;44257;44.804;10.220;2023-04-24T13:44:07;25.40;89.70
58469;DHT22;44257;44.804;10.220;2023-04-24T13:46:33;25.50;90.50
58469;DHT22;44257;44.804;10.220;2023-04-24T13:48:59;25.70;90.00
58469;DHT22;44257;44.804;10.220;2023-04-24T13:51:27;25.70;86.80
58469;DHT22;44257;44.804;10.220;2023-04-24T13:53:54;25.60;87.90
58469;DHT22;44257;44.804;10.220;2023-04-24T13:56:21;25.50;89.20
58469;DHT22;44257;44.804;10.220;2023-04-24T13:58:48;25.50;90.70
58469;DHT22;44257;44.804;10.220;2023-04-24T14:01:14;25.60;89.30
58469;DHT22;44257;44.804;10.220;2023-04-24T14:03:41;25.70;87.70
58469;DHT22;44257;44.804;10.220;2023-04-24T14:06:07;25.80;85.70
58469;DHT22;44257;44.804;10.220;2023-04-24T14:08:34;25.80;85.40
58469;DHT22;44257;44.804;10.220;2023-04-24T14:11:00;25.60;87.60
58469;DHT22;44257;44.804;10.220;2023-04-24T14:13:26;25.70;86.70
58469;DHT22;44257;44.804;10.220;2023-04-24T14:15:53;25.80;90.10
58469;DHT22;44257;44.804;10.220;2023-04-24T14:18:19;26.00;90.00
58469;DHT22;44257;44.804;10.220;2023-04-24T14:20:45;26.20;90.70
58469;DHT22;44257;44.804;10.220;2023-04-24T14:23:10;26.20;88.60
58469;DHT22;44257;44.804;10.220;2023-04-24T14:25:36;26.20;88.00
58469;DHT22;44257;44.804;10.220;2023-04-24T14:28:02;26.40;88.80
58469;DHT22;44257;44.804;10.220;2023-04-24T14:30:28;26.40;90.60
58469;DHT22;44257;44.804;10.220;2023-04-24T14:32:53;26.50;90.70
58469;DHT22;44257;44.804;10.220;2023-04-24T14:35:19;26.40;90.20
58469;DHT22;44257;44.804;10.220;2023-04-24T14:37:45;26.40;90.80
58469;DHT22;44257;44.804;10.220;2023-04-24T14:40:11;26.30;90.00
58469;DHT22;44257;44.804;10.220;2023-04-24T14:42:37;26.30;90.20
58469;DHT22;44257;44.804;10.220;2023-04-24T14:45:03;26.30;90.40
58469;DHT22;44257;44.804;10.220;2023-04-24T14:47:29;26.50;90.10
58469;DHT22;44257;44.804;10.220;2023-04-24T14:49:55;26.50;89.40
58469;DHT22;44257;44.804;10.220;2023-04-24T14:52:21;26.50;87.90
58469;DHT22;44257;44.804;10.220;2023-04-24T14:54:47;26.50;88.60
58469;DHT22;44257;44.804;10.220;2023-04-24T14:57:13;26.50;86.50
58469;DHT22;44257;44.804;10.220;2023-04-24T14:59:39;26.50;87.60
58469;DHT22;44257;44.804;10.220;2023-04-24T15:02:06;26.40;87.10
58469;DHT22;44257;44.804;10.220;2023-04-24T15:04:32;26.30;79.80
58469;DHT22;44257;44.804;10.220;2023-04-24T15:06:57;26.10;79.30
58469;DHT22;44257;44.804;10.220;2023-04-24T15:09:24;25.90;80.60
58469;DHT22;44257;44.804;10.220;2023-04-24T15:11:51;25.80;79.70
58469;DHT22;44257;44.804;10.220;2023-04-24T15:14:18;25.60;81.80
58469;DHT22;44257;44.804;10.220;2023-04-24T15:16:44;25.50;80.40
58469;DHT22;44257;44.804;10.220;2023-04-24T15:19:10;25.40;80.60
58469;DHT22;44257;44.804;10.220;2023-04-24T15:21:37;25.40;81.50
58469;DHT22;44257;44.804;10.220;2023-04-24T15:24:04;25.30;82.50
58469;DHT22;44257;44.804;10.220;2023-04-24T15:26:30;25.10;79.30
58469;DHT22;44257;44.804;10.220;2023-04-24T15:28:56;24.80;81.60
58469;DHT22;44257;44.804;10.220;2023-04-24T15:31:22;24.60;81.30
58469;DHT22;44257;44.804;10.220;2023-04-24T15:33:49;24.50;82.60
58469;DHT22;44257;44.804;10.220;2023-04-24T15:36:18;24.40;84.30
58469;DHT22;44257;44.804;10.220;2023-04-24T15:38:44;24.40;83.10